createdAt,value
2023-04-19T00:01:48.869Z,101315.35
2023-04-19T00:04:21.975Z,101314.50
2023-04-19T00:06:54.963Z,101305.45
2023-04-19T00:09:26.817Z,101304.92
2023-04-19T00:11:58.611Z,101301.70
2023-04-19T00:14:30.595Z,101298.75
2023-04-19T00:17:02.515Z,101296.88
2023-04-19T00:19:34.505Z,101291.98
2023-04-19T00:22:06.284Z,101289.24
2023-04-19T00:24:38.513Z,101289.80
2023-04-19T00:27:10.671Z,101286.04
2023-04-19T00:29:42.566Z,101283.90
2023-04-19T00:32:14.730Z,101281.98
2023-04-19T00:34:47.251Z,101277.67
2023-04-19T00:37:19.163Z,101278.73
2023-04-19T00:39:51.522Z,101277.48
2023-04-19T00:42:23.436Z,101276.27
2023-04-19T00:44:55.495Z,101274.50
2023-04-19T00:47:27.441Z,101271.34
2023-04-19T00:50:00.119Z,101266.14
2023-04-19T00:52:33.767Z,101266.12
2023-04-19T00:55:08.087Z,101261.48
2023-04-19T00:57:40.828Z,101260.04
2023-04-19T01:00:15.242Z,101261.66
2023-04-19T01:02:47.736Z,101259.06
2023-04-19T01:05:20.216Z,101248.80
2023-04-19T01:07:52.476Z,101248.59
2023-04-19T01:10:24.495Z,101244.10
2023-04-19T01:12:56.575Z,101219.98
2023-04-19T01:15:28.846Z,101241.59
2023-04-19T01:18:02.254Z,101242.33
2023-04-19T01:20:34.368Z,101238.58
2023-04-19T01:23:06.862Z,101240.19
2023-04-19T01:25:39.493Z,101237.49
2023-04-19T01:28:11.323Z,101240.18
2023-04-19T01:30:44.315Z,101233.35
2023-04-19T01:33:16.912Z,101236.41
2023-04-19T01:35:49.496Z,101236.21
2023-04-19T01:38:19.903Z,101231.92
2023-04-19T01:40:51.833Z,101228.49
2023-04-19T01:43:23.692Z,101224.71
2023-04-19T01:45:56.058Z,101225.63
2023-04-19T01:48:27.873Z,101224.00
2023-04-19T01:50:59.680Z,101219.33
2023-04-19T01:53:31.843Z,101222.02
2023-04-19T01:56:03.994Z,101223.25
2023-04-19T01:58:35.820Z,101222.55
2023-04-19T02:01:09.767Z,101214.61
2023-04-19T02:03:41.791Z,101218.94
2023-04-19T02:06:15.029Z,101209.19
2023-04-19T02:08:46.935Z,101210.44
2023-04-19T02:11:19.698Z,101205.58
2023-04-19T02:13:52.925Z,101201.10
2023-04-19T02:16:26.052Z,101205.60
2023-04-19T02:18:58.776Z,101205.00
2023-04-19T02:21:31.865Z,101198.55
2023-04-19T02:24:04.253Z,101203.53
2023-04-19T02:26:34.987Z,101200.23
2023-04-19T02:29:07.154Z,101198.27
2023-04-19T02:31:39.097Z,101190.42
2023-04-19T02:34:14.701Z,101190.59
2023-04-19T02:36:46.821Z,101194.70
2023-04-19T02:39:18.701Z,101189.67
2023-04-19T02:41:51.031Z,101195.37
2023-04-19T02:44:23.231Z,101193.70
2023-04-19T02:46:55.855Z,101190.68
2023-04-19T02:49:26.336Z,101188.36
2023-04-19T02:51:58.237Z,101181.73
2023-04-19T02:54:30.118Z,101176.13
2023-04-19T02:57:02.061Z,101175.80
2023-04-19T02:59:34.073Z,101165.52
2023-04-19T03:02:07.091Z,101164.80
2023-04-19T03:04:39.088Z,101160.45
2023-04-19T03:07:11.456Z,101153.80
2023-04-19T03:09:44.467Z,101150.88
2023-04-19T03:12:16.402Z,101148.38
2023-04-19T03:14:49.392Z,101142.25
2023-04-19T03:17:21.382Z,101140.57
2023-04-19T03:19:54.116Z,101139.69
2023-04-19T03:22:26.001Z,101133.21
2023-04-19T03:24:58.172Z,101134.27
2023-04-19T03:27:29.943Z,101138.05
2023-04-19T03:30:05.048Z,101132.65
2023-04-19T03:32:36.963Z,101136.00
2023-04-19T03:35:10.941Z,101134.30
2023-04-19T03:37:43.490Z,101131.42
2023-04-19T03:40:16.005Z,101133.42
2023-04-19T03:42:48.057Z,101133.13
2023-04-19T03:45:30.911Z,101129.94
2023-04-19T03:48:03.345Z,101126.74
2023-04-19T03:50:35.478Z,101125.24
2023-04-19T03:53:07.678Z,101117.50
2023-04-19T03:55:39.659Z,101117.38
2023-04-19T03:58:11.573Z,101111.25
2023-04-19T04:00:52.290Z,101109.76
2023-04-19T04:03:27.310Z,101112.23
2023-04-19T04:06:02.627Z,101114.79
2023-04-19T04:08:41.236Z,101113.85
2023-04-19T04:11:20.840Z,101110.39
2023-04-19T04:13:58.134Z,101108.52
2023-04-19T04:16:34.944Z,101109.73
2023-04-19T04:19:05.729Z,101103.91
2023-04-19T04:21:38.730Z,101103.08
2023-04-19T04:24:09.867Z,101104.27
2023-04-19T04:26:49.919Z,101102.95
2023-04-19T04:29:25.912Z,101101.02
2023-04-19T04:31:59.700Z,101099.69
2023-04-19T04:34:35.839Z,101098.15
2023-04-19T04:37:12.605Z,101101.15
2023-04-19T04:39:45.477Z,101099.00
2023-04-19T04:42:17.576Z,101096.00
2023-04-19T04:44:51.880Z,101090.21
2023-04-19T04:47:24.226Z,101086.83
2023-04-19T04:49:59.178Z,101081.10
2023-04-19T04:52:31.322Z,101085.40
2023-04-19T04:55:16.459Z,101077.58
2023-04-19T04:57:49.122Z,101072.34
2023-04-19T05:00:27.286Z,101066.63
2023-04-19T05:03:04.053Z,101068.36
2023-04-19T05:05:40.013Z,101063.19
2023-04-19T05:08:14.328Z,101065.55
2023-04-19T05:10:48.271Z,101068.09
2023-04-19T05:13:21.567Z,101070.63
2023-04-19T05:15:55.047Z,101065.81
2023-04-19T05:18:30.179Z,101063.70
2023-04-19T05:21:02.103Z,101060.10
2023-04-19T05:23:37.260Z,101057.39
2023-04-19T05:26:12.858Z,101053.26
2023-04-19T05:28:47.062Z,101051.12
2023-04-19T05:31:27.550Z,101048.80
2023-04-19T05:34:21.837Z,101043.77
2023-04-19T05:37:03.777Z,101046.84
2023-04-19T05:39:37.664Z,101049.16
2023-04-19T05:42:10.825Z,101052.05
2023-04-19T05:44:43.926Z,101051.71
2023-04-19T05:47:17.866Z,101050.27
2023-04-19T05:50:18.214Z,101050.11
2023-04-19T05:52:55.249Z,101043.13
2023-04-19T05:55:26.650Z,101044.21
2023-04-19T05:58:01.316Z,101036.66
2023-04-19T06:00:34.297Z,101035.23
2023-04-19T06:03:12.564Z,101037.92
2023-04-19T06:05:45.533Z,101042.05
2023-04-19T06:08:18.955Z,101040.44
2023-04-19T06:10:55.592Z,101043.33
2023-04-19T06:13:35.389Z,101042.41
2023-04-19T06:16:09.439Z,101045.12
2023-04-19T06:18:43.804Z,101048.16
2023-04-19T06:21:16.178Z,101049.60
2023-04-19T06:23:49.404Z,101051.23
2023-04-19T06:26:21.738Z,101051.76
2023-04-19T06:28:57.459Z,101053.38
2023-04-19T06:31:30.372Z,101052.84
2023-04-19T06:34:02.716Z,101057.52
2023-04-19T06:36:33.553Z,101055.89
2023-04-19T06:39:05.975Z,101055.89
2023-04-19T06:41:38.168Z,101061.63
2023-04-19T06:44:12.033Z,101056.42
2023-04-19T06:46:44.541Z,101051.03
2023-04-19T06:49:16.640Z,101049.76
2023-04-19T06:51:49.481Z,101043.84
2023-04-19T06:54:22.271Z,101046.36
2023-04-19T06:56:57.151Z,101044.00
2023-04-19T06:59:32.390Z,101042.92
2023-04-19T07:02:04.540Z,101035.56
2023-04-19T07:04:37.167Z,101032.32
2023-04-19T07:07:09.338Z,101036.81
2023-04-19T07:09:41.686Z,101040.05
2023-04-19T07:12:13.979Z,101033.05
2023-04-19T07:14:46.673Z,101025.89
2023-04-19T07:17:20.438Z,101026.25
2023-04-19T07:19:58.949Z,101021.39
2023-04-19T07:22:31.458Z,101029.14
2023-04-19T07:25:04.633Z,101026.96
2023-04-19T07:27:37.994Z,101025.88
2023-04-19T07:30:13.833Z,101035.22
2023-04-19T07:32:47.953Z,101046.73
2023-04-19T07:35:21.408Z,101046.19
2023-04-19T07:37:52.444Z,101042.04
2023-04-19T07:40:28.465Z,101029.83
2023-04-19T07:43:01.805Z,101014.55
2023-04-19T07:45:34.848Z,101005.40
2023-04-19T07:48:08.007Z,101004.68
2023-04-19T07:50:40.796Z,101016.55
2023-04-19T07:53:14.926Z,101044.76
2023-04-19T07:55:45.625Z,101037.20
2023-04-19T07:58:18.025Z,101039.19
2023-04-19T08:00:50.627Z,101038.10
2023-04-19T08:03:24.116Z,101035.05
2023-04-19T08:05:57.789Z,101030.55
2023-04-19T08:08:33.629Z,101037.02
2023-04-19T08:11:07.720Z,101033.42
2023-04-19T08:13:42.138Z,101035.77
2023-04-19T08:17:05.923Z,101039.36
2023-04-19T08:19:12.475Z,101038.98
2023-04-19T08:21:45.184Z,101030.73
2023-04-19T08:24:15.657Z,101027.15
2023-04-19T08:26:53.629Z,101030.92
2023-04-19T08:29:25.866Z,101030.38
2023-04-19T08:31:57.869Z,101014.58
2023-04-19T08:34:30.591Z,101024.63
2023-04-19T08:37:04.719Z,101025.34
2023-04-19T08:39:37.873Z,101021.00
2023-04-19T08:42:24.634Z,101015.78
2023-04-19T08:47:52.502Z,100999.42
2023-04-19T08:50:40.466Z,100997.44
2023-04-19T08:53:25.724Z,101003.55
2023-04-19T08:56:12.739Z,100998.42
2023-04-19T08:59:07.448Z,100989.27
2023-04-19T09:01:44.834Z,100986.92
2023-04-19T09:04:35.600Z,100979.94
2023-04-19T09:07:09.630Z,100971.16
2023-04-19T09:09:59.681Z,100967.75
2023-04-19T09:12:33.299Z,100961.09
2023-04-19T09:15:08.965Z,100965.20
2023-04-19T09:17:43.749Z,100958.89
2023-04-19T09:20:15.895Z,100962.92
2023-04-19T09:23:06.556Z,100951.61
2023-04-19T09:25:52.933Z,100951.13
2023-04-19T09:28:32.109Z,100949.30
2023-04-19T09:31:33.361Z,100944.81
2023-04-19T09:34:18.031Z,100946.91
2023-04-19T09:36:54.602Z,100945.67
2023-04-19T09:39:33.814Z,100942.43
2023-04-19T09:42:07.165Z,100946.39
2023-04-19T09:47:26.030Z,100948.77
2023-04-19T09:50:22.778Z,100948.23
2023-04-19T09:52:56.594Z,100943.78
2023-04-19T09:55:57.170Z,100945.59
2023-04-19T09:58:49.988Z,100943.42
2023-04-19T10:01:26.818Z,100943.80
2023-04-19T10:04:13.749Z,100940.95
2023-04-19T10:07:19.510Z,100940.23
2023-04-19T10:09:53.654Z,100926.93
2023-04-19T10:15:05.006Z,100941.48
2023-04-19T10:17:37.316Z,100939.15
2023-04-19T10:20:14.860Z,100936.63
2023-04-19T10:22:49.519Z,100939.14
2023-04-19T10:25:31.803Z,100936.27
2023-04-19T10:28:04.170Z,100929.98
2023-04-19T10:30:36.804Z,100932.51
2023-04-19T10:33:07.770Z,100933.39
2023-04-19T10:35:41.884Z,100931.96
2023-04-19T10:38:21.521Z,100927.46
2023-04-19T10:41:05.664Z,100929.63
2023-04-19T10:43:46.797Z,100931.78
2023-04-19T10:46:37.401Z,100935.19
2023-04-19T10:49:15.830Z,100938.42
2023-04-19T10:51:54.879Z,100938.23
2023-04-19T10:54:36.476Z,100935.91
2023-04-19T10:57:11.452Z,100929.98
2023-04-19T10:59:44.448Z,100926.21
2023-04-19T11:02:34.179Z,100921.02
2023-04-19T11:05:08.480Z,100920.66
2023-04-19T11:07:44.349Z,100921.37
2023-04-19T11:10:31.553Z,100914.72
2023-04-19T11:13:04.050Z,100918.14
2023-04-19T11:15:44.805Z,100917.05
2023-04-19T11:18:22.775Z,100914.70
2023-04-19T11:21:01.185Z,100908.05
2023-04-19T11:23:33.239Z,100909.51
2023-04-19T11:26:06.746Z,100905.91
2023-04-19T11:28:39.095Z,100906.81
2023-04-19T11:31:11.260Z,100900.17
2023-04-19T11:33:45.199Z,100894.79
2023-04-19T11:36:19.020Z,100891.55
2023-04-19T11:38:53.545Z,100888.68
2023-04-19T11:41:26.525Z,100894.05
2023-04-19T11:44:02.765Z,100896.58
2023-04-19T11:46:36.001Z,100890.81
2023-04-19T11:49:09.596Z,100890.24
2023-04-19T11:51:46.439Z,100895.80
2023-04-19T11:54:19.125Z,100896.48
2023-04-19T11:57:06.121Z,100897.91
2023-04-19T11:59:43.627Z,100893.80
2023-04-19T12:02:21.763Z,100891.27
2023-04-19T12:04:54.714Z,100893.94
2023-04-19T12:07:26.858Z,100896.77
2023-04-19T12:10:10.275Z,100889.35
2023-04-19T12:12:42.802Z,100889.18
2023-04-19T12:15:15.270Z,100891.70
2023-04-19T12:18:01.894Z,100893.26
2023-04-19T12:20:36.007Z,100898.52
2023-04-19T12:23:13.444Z,100899.22
2023-04-19T12:25:48.553Z,100897.96
2023-04-19T12:28:26.189Z,100893.78
2023-04-19T12:30:59.077Z,100890.20
2023-04-19T12:33:30.747Z,100891.84
2023-04-19T12:36:03.458Z,100887.92
2023-04-19T12:38:37.674Z,100887.58
2023-04-19T12:41:09.798Z,100886.68
2023-04-19T12:43:42.450Z,100874.28
2023-04-19T12:46:15.649Z,100883.38
2023-04-19T12:48:49.305Z,100881.13
2023-04-19T12:51:21.982Z,100877.85
2023-04-19T12:53:55.542Z,100875.86
2023-04-19T12:56:27.698Z,100876.58
2023-04-19T12:58:59.709Z,100871.58
2023-04-19T13:01:33.320Z,100865.30
2023-04-19T13:04:08.098Z,100859.55
2023-04-19T13:06:45.057Z,100860.80
2023-04-19T13:09:17.735Z,100854.55
2023-04-19T13:11:49.722Z,100855.61
2023-04-19T13:14:21.659Z,100852.72
2023-04-19T13:16:53.946Z,100853.95
2023-04-19T13:19:25.958Z,100849.57
2023-04-19T13:21:57.968Z,100849.71
2023-04-19T13:24:30.105Z,100851.70
2023-04-19T13:27:02.370Z,100858.08
2023-04-19T13:29:34.818Z,100852.02
2023-04-19T13:32:12.431Z,100857.52
2023-04-19T13:34:44.983Z,100850.84
2023-04-19T13:37:17.060Z,100851.15
2023-04-19T13:39:49.111Z,100849.69
2023-04-19T13:42:22.723Z,100844.98
2023-04-19T13:44:54.595Z,100848.80
2023-04-19T13:47:26.898Z,100847.73
2023-04-19T13:49:59.347Z,100845.88
2023-04-19T13:52:31.363Z,100838.54
2023-04-19T13:55:03.540Z,100838.36
2023-04-19T13:57:35.588Z,100833.27
2023-04-19T14:00:11.437Z,100832.23
2023-04-19T14:02:45.051Z,100831.45
2023-04-19T14:05:17.370Z,100830.87
2023-04-19T14:07:49.515Z,100821.46
2023-04-19T14:10:22.527Z,100830.57
2023-04-19T14:12:55.463Z,100830.55
2023-04-19T14:15:26.707Z,100830.48
2023-04-19T14:17:58.967Z,100829.55
2023-04-19T14:20:31.443Z,100830.20
2023-04-19T14:23:04.962Z,100832.51
2023-04-19T14:25:37.376Z,100832.48
2023-04-19T14:28:09.589Z,100829.24
2023-04-19T14:30:41.568Z,100830.36
2023-04-19T14:33:13.633Z,100829.94
2023-04-19T14:35:46.106Z,100822.05
2023-04-19T14:38:18.552Z,100825.69
2023-04-19T14:40:50.801Z,100833.22
2023-04-19T14:43:22.895Z,100831.16
2023-04-19T14:45:55.616Z,100837.63
2023-04-19T14:48:26.488Z,100837.45
2023-04-19T14:50:58.638Z,100837.10
2023-04-19T14:53:33.480Z,100840.13
2023-04-19T14:56:08.346Z,100839.55
2023-04-19T14:58:40.516Z,100836.45
2023-04-19T15:01:16.309Z,100838.05
2023-04-19T15:03:48.674Z,100839.27
2023-04-19T15:06:20.943Z,100841.58
2023-04-19T15:08:53.542Z,100841.05
2023-04-19T15:11:25.823Z,100839.92
2023-04-19T15:13:58.150Z,100839.71
2023-04-19T15:16:31.778Z,100840.23
2023-04-19T15:19:07.424Z,100850.47
2023-04-19T15:21:42.373Z,100847.20
2023-04-19T15:24:14.507Z,100852.77
2023-04-19T15:26:46.613Z,100850.96
2023-04-19T15:29:18.833Z,100848.80
2023-04-19T15:31:51.430Z,100849.80
2023-04-19T15:34:25.359Z,100849.56
2023-04-19T15:36:57.441Z,100847.17
2023-04-19T15:39:29.562Z,100847.84
2023-04-19T15:42:02.208Z,100848.10
2023-04-19T15:44:36.135Z,100851.86
2023-04-19T15:47:13.520Z,100850.03
2023-04-19T15:49:47.210Z,100849.63
2023-04-19T15:52:19.327Z,100851.94
2023-04-19T15:54:53.855Z,100855.70
2023-04-19T15:57:28.762Z,100855.38
2023-04-19T16:00:01.381Z,100850.27
2023-04-19T16:02:34.786Z,100851.36
2023-04-19T16:05:07.902Z,100851.27
2023-04-19T16:07:38.167Z,100852.46
2023-04-19T16:10:11.037Z,100853.17
2023-04-19T16:12:44.287Z,100850.33
2023-04-19T16:15:16.300Z,100852.88
2023-04-19T16:17:48.227Z,100855.58
2023-04-19T16:20:20.671Z,100858.45
2023-04-19T16:22:52.700Z,100855.73
2023-04-19T16:25:24.502Z,100852.31
2023-04-19T16:27:56.395Z,100850.51
2023-04-19T16:30:28.830Z,100851.86
2023-04-19T16:33:04.508Z,100858.35
2023-04-19T16:35:36.533Z,100859.41
2023-04-19T16:38:08.901Z,100859.19
2023-04-19T16:40:40.805Z,100867.98
2023-04-19T16:43:12.777Z,100869.94
2023-04-19T16:45:44.893Z,100867.76
2023-04-19T16:48:17.003Z,100868.45
2023-04-19T16:50:49.979Z,100870.73
2023-04-19T16:53:20.737Z,100869.11
2023-04-19T16:55:53.530Z,100873.09
2023-04-19T16:58:28.066Z,100873.42
2023-04-19T17:01:01.897Z,100875.45
2023-04-19T17:03:35.014Z,100872.60
2023-04-19T17:06:07.901Z,100877.46
2023-04-19T17:08:39.748Z,100879.77
2023-04-19T17:11:11.652Z,100880.11
2023-04-19T17:13:43.724Z,100877.27
2023-04-19T17:16:15.731Z,100874.38
2023-04-19T17:18:48.091Z,100876.84
2023-04-19T17:21:23.449Z,100882.61
2023-04-19T17:23:55.769Z,100885.52
2023-04-19T17:26:28.079Z,100887.65
2023-04-19T17:29:01.780Z,100886.77
2023-04-19T17:31:34.147Z,100884.86
2023-04-19T17:34:07.176Z,100886.65
2023-04-19T17:36:39.172Z,100892.56
2023-04-19T17:39:11.056Z,100898.67
2023-04-19T17:41:44.718Z,100905.67
2023-04-19T17:44:16.595Z,100907.67
2023-04-19T17:46:48.418Z,100900.86
2023-04-19T17:49:21.733Z,100897.90
2023-04-19T17:51:53.516Z,100898.06
2023-04-19T17:54:25.547Z,100899.79
2023-04-19T17:56:59.329Z,100899.91
2023-04-19T17:59:31.564Z,100902.23
2023-04-19T18:02:04.562Z,100907.27
2023-04-19T18:04:37.759Z,100916.11
2023-04-19T18:07:10.521Z,100914.13
2023-04-19T18:09:43.019Z,100918.80
2023-04-19T18:12:14.696Z,100924.23
2023-04-19T18:14:46.567Z,100929.09
2023-04-19T18:17:18.399Z,100933.98
2023-04-19T18:19:50.183Z,100933.63
2023-04-19T18:22:21.962Z,100934.50
2023-04-19T18:24:55.706Z,100938.82
2023-04-19T18:27:29.708Z,100941.73
2023-04-19T18:30:05.711Z,100942.60
2023-04-19T18:32:43.946Z,100941.48
2023-04-19T18:35:28.470Z,100947.23
2023-04-19T18:38:11.710Z,100952.81
2023-04-19T18:40:46.982Z,100946.73
2023-04-19T18:43:20.523Z,100951.75
2023-04-19T18:46:02.993Z,100952.68
2023-04-19T18:48:39.709Z,100958.29
2023-04-19T18:51:16.166Z,100955.73
2023-04-19T18:53:52.051Z,100958.78
2023-04-19T18:57:03.822Z,100957.88
2023-04-19T18:59:21.773Z,100963.11
2023-04-19T19:01:59.274Z,100963.30
2023-04-19T19:07:33.317Z,100963.10
2023-04-19T19:10:16.971Z,100960.93
2023-04-19T19:12:55.889Z,100962.56
2023-04-19T19:15:38.493Z,100965.82
2023-04-19T19:18:15.158Z,100967.50
2023-04-19T19:20:49.669Z,100967.49
2023-04-19T19:23:35.299Z,100973.42
2023-04-19T19:26:09.269Z,100973.39
2023-04-19T19:28:47.352Z,100978.07
2023-04-19T19:31:25.513Z,100977.18
2023-04-19T19:34:22.005Z,100976.84
2023-04-19T19:36:55.279Z,100979.17
2023-04-19T19:39:28.363Z,100977.21
2023-04-19T19:42:06.080Z,100980.70
2023-04-19T19:44:40.790Z,100984.89
2023-04-19T19:47:17.242Z,100984.52
2023-04-19T19:50:31.444Z,100988.88
2023-04-19T19:52:45.528Z,100989.09
2023-04-19T19:55:18.832Z,100991.98
2023-04-19T20:03:07.128Z,101001.52
2023-04-19T20:05:41.465Z,101002.22
2023-04-19T20:08:16.898Z,101001.65
2023-04-19T20:10:49.926Z,101003.25
2023-04-19T20:13:23.726Z,101004.85
2023-04-19T20:15:58.859Z,101001.23
2023-04-19T20:18:32.658Z,100994.10
2023-04-19T20:21:05.895Z,100994.52
2023-04-19T20:23:41.556Z,100995.23
2023-04-19T20:26:15.525Z,100986.56
2023-04-19T20:28:52.270Z,100989.46
2023-04-19T20:31:27.227Z,100988.73
2023-04-19T20:34:05.143Z,100989.09
2023-04-19T20:36:40.693Z,100981.89
2023-04-19T20:39:19.523Z,100983.88
2023-04-19T20:41:54.052Z,100981.20
2023-04-19T20:44:28.028Z,100979.75
2023-04-19T20:47:02.871Z,100981.53
2023-04-19T20:49:39.152Z,100979.71
2023-04-19T20:52:14.219Z,100981.83
2023-04-19T20:54:50.367Z,100981.17
2023-04-19T20:57:28.083Z,100983.67
2023-04-19T21:00:04.908Z,100986.34
2023-04-19T21:02:39.960Z,100990.29
2023-04-19T21:05:12.850Z,100987.05
2023-04-19T21:07:46.865Z,100985.60
2023-04-19T21:10:22.357Z,100985.59
2023-04-19T21:12:59.501Z,100985.77
2023-04-19T21:15:38.219Z,100989.38
2023-04-19T21:18:12.260Z,100988.71
2023-04-19T21:20:45.388Z,100988.52
2023-04-19T21:23:20.794Z,100986.21
2023-04-19T21:25:58.114Z,100988.89
2023-04-19T21:28:39.663Z,100994.30
2023-04-19T21:31:12.357Z,100991.04
2023-04-19T21:33:45.768Z,100991.80
2023-04-19T21:36:19.050Z,100991.09
2023-04-19T21:38:52.848Z,100987.61
2023-04-19T21:41:26.290Z,100988.69
2023-04-19T21:43:57.035Z,100986.50
2023-04-19T21:46:31.908Z,100984.56
2023-04-19T21:49:04.719Z,100981.16
2023-04-19T21:51:38.954Z,100981.70
2023-04-19T21:54:20.547Z,100978.85
2023-04-19T21:57:04.279Z,100984.95
2023-04-19T21:59:37.910Z,100985.69
2023-04-19T22:02:11.482Z,100981.56
2023-04-19T22:04:45.905Z,100984.26
2023-04-19T22:07:21.219Z,100976.31
2023-04-19T22:09:54.914Z,100985.86
2023-04-19T22:12:27.193Z,100985.15
2023-04-19T22:14:59.032Z,100986.58
2023-04-19T22:17:32.454Z,100990.67
2023-04-19T22:20:08.491Z,100991.77
2023-04-19T22:22:40.958Z,100989.61
2023-04-19T22:25:13.183Z,100990.15
2023-04-19T22:27:45.450Z,100985.27
2023-04-19T22:30:17.572Z,100982.08
2023-04-19T22:32:49.841Z,100984.95
2023-04-19T22:35:22.874Z,100980.23
2023-04-19T22:37:55.059Z,100977.92
2023-04-19T22:40:26.996Z,100971.96
2023-04-19T22:42:58.699Z,100967.07
2023-04-19T22:45:30.494Z,100968.69
2023-04-19T22:48:03.239Z,100968.31
2023-04-19T22:50:35.406Z,100965.77
2023-04-19T22:53:07.171Z,100973.16
2023-04-19T22:55:39.115Z,100968.49
2023-04-19T22:58:11.642Z,100969.95
2023-04-19T23:00:43.489Z,100969.44
2023-04-19T23:03:15.863Z,100966.38
2023-04-19T23:05:48.129Z,100961.38
2023-04-19T23:08:19.985Z,100958.09
2023-04-19T23:10:52.025Z,100958.23
2023-04-19T23:13:23.796Z,100956.75
2023-04-19T23:15:55.919Z,100956.75
2023-04-19T23:18:27.884Z,100952.48
2023-04-19T23:20:59.681Z,100955.94
2023-04-19T23:23:31.437Z,100959.34
2023-04-19T23:26:03.190Z,100962.73
2023-04-19T23:28:35.109Z,100959.56
2023-04-19T23:31:07.027Z,100962.27
2023-04-19T23:33:38.850Z,100959.94
2023-04-19T23:36:11.539Z,100962.27
2023-04-19T23:38:43.556Z,100965.82
2023-04-19T23:41:15.307Z,100964.91
2023-04-19T23:43:48.943Z,100961.15
2023-04-19T23:46:20.743Z,100959.86
2023-04-19T23:48:52.586Z,100959.11
2023-04-19T23:51:24.701Z,100958.42
2023-04-19T23:53:56.358Z,100958.45
2023-04-19T23:56:28.150Z,100961.51
2023-04-19T23:58:59.902Z,100961.16
